sensor_id;sensor_type;location;lat;lon;timestamp;P1;durP1;ratioP1;P2;durP2;ratioP2
53022;SDS011;38913;44.338;11.206;2023-11-19T00:01:25;7.10;;;3.97;;
53022;SDS011;38913;44.338;11.206;2023-11-19T00:03:51;6.03;;;3.90;;
53022;SDS011;38913;44.338;11.206;2023-11-19T00:06:18;5.28;;;3.97;;
53022;SDS011;38913;44.338;11.206;2023-11-19T00:08:45;7.63;;;4.00;;
53022;SDS011;38913;44.338;11.206;2023-11-19T00:11:12;7.13;;;4.78;;
53022;SDS011;38913;44.338;11.206;2023-11-19T00:13:42;6.53;;;4.00;;
53022;SDS011;38913;44.338;11.206;2023-11-19T00:16:08;6.57;;;3.95;;
53022;SDS011;38913;44.338;11.206;2023-11-19T00:18:37;10.02;;;5.00;;
53022;SDS011;38913;44.338;11.206;2023-11-19T00:21:03;17.27;;;8.02;;
53022;SDS011;38913;44.338;11.206;2023-11-19T00:23:31;9.45;;;5.53;;
53022;SDS011;38913;44.338;11.206;2023-11-19T00:25:57;9.60;;;6.32;;
53022;SDS011;38913;44.338;11.206;2023-11-19T00:28:25;8.30;;;5.53;;
53022;SDS011;38913;44.338;11.206;2023-11-19T00:30:52;16.50;;;8.82;;
53022;SDS011;38913;44.338;11.206;2023-11-19T00:33:19;6.65;;;4.40;;
53022;SDS011;38913;44.338;11.206;2023-11-19T00:35:46;7.25;;;4.80;;
53022;SDS011;38913;44.338;11.206;2023-11-19T00:38:12;6.50;;;4.35;;
53022;SDS011;38913;44.338;11.206;2023-11-19T00:40:38;6.93;;;4.30;;
53022;SDS011;38913;44.338;11.206;2023-11-19T00:43:05;5.70;;;3.92;;
53022;SDS011;38913;44.338;11.206;2023-11-19T00:45:31;7.50;;;4.05;;
53022;SDS011;38913;44.338;11.206;2023-11-19T00:47:57;6.20;;;3.97;;
53022;SDS011;38913;44.338;11.206;2023-11-19T00:50:26;6.70;;;4.80;;
53022;SDS011;38913;44.338;11.206;2023-11-19T00:52:52;7.80;;;5.63;;
53022;SDS011;38913;44.338;11.206;2023-11-19T00:55:18;9.55;;;5.47;;
53022;SDS011;38913;44.338;11.206;2023-11-19T00:57:45;5.30;;;4.18;;
53022;SDS011;38913;44.338;11.206;2023-11-19T01:00:12;8.75;;;5.18;;
53022;SDS011;38913;44.338;11.206;2023-11-19T01:02:56;7.88;;;4.55;;
53022;SDS011;38913;44.338;11.206;2023-11-19T01:05:22;7.18;;;4.40;;
53022;SDS011;38913;44.338;11.206;2023-11-19T01:07:50;6.47;;;4.22;;
53022;SDS011;38913;44.338;11.206;2023-11-19T01:10:19;7.47;;;4.50;;
53022;SDS011;38913;44.338;11.206;2023-11-19T01:12:46;6.18;;;3.72;;
53022;SDS011;38913;44.338;11.206;2023-11-19T01:15:11;6.85;;;3.90;;
53022;SDS011;38913;44.338;11.206;2023-11-19T01:17:39;6.43;;;3.95;;
53022;SDS011;38913;44.338;11.206;2023-11-19T01:20:07;5.45;;;3.70;;
53022;SDS011;38913;44.338;11.206;2023-11-19T01:22:33;7.82;;;4.13;;
53022;SDS011;38913;44.338;11.206;2023-11-19T01:24:59;5.97;;;3.80;;
53022;SDS011;38913;44.338;11.206;2023-11-19T01:27:26;5.00;;;3.53;;
53022;SDS011;38913;44.338;11.206;2023-11-19T01:29:51;4.40;;;3.30;;
53022;SDS011;38913;44.338;11.206;2023-11-19T01:32:19;5.65;;;3.80;;
53022;SDS011;38913;44.338;11.206;2023-11-19T01:34:45;7.03;;;4.47;;
53022;SDS011;38913;44.338;11.206;2023-11-19T01:37:12;6.43;;;4.00;;
53022;SDS011;38913;44.338;11.206;2023-11-19T01:39:43;6.68;;;4.35;;
53022;SDS011;38913;44.338;11.206;2023-11-19T01:42:10;6.07;;;4.20;;
53022;SDS011;38913;44.338;11.206;2023-11-19T01:44:39;5.35;;;4.10;;
53022;SDS011;38913;44.338;11.206;2023-11-19T01:47:08;6.65;;;4.35;;
53022;SDS011;38913;44.338;11.206;2023-11-19T01:49:35;5.40;;;3.55;;
53022;SDS011;38913;44.338;11.206;2023-11-19T01:52:03;7.13;;;4.03;;
53022;SDS011;38913;44.338;11.206;2023-11-19T01:54:30;5.50;;;3.70;;
53022;SDS011;38913;44.338;11.206;2023-11-19T01:56:57;6.13;;;3.70;;
53022;SDS011;38913;44.338;11.206;2023-11-19T01:59:23;5.57;;;3.35;;
53022;SDS011;38913;44.338;11.206;2023-11-19T02:01:52;6.30;;;3.90;;
53022;SDS011;38913;44.338;11.206;2023-11-19T02:04:17;5.28;;;3.20;;
53022;SDS011;38913;44.338;11.206;2023-11-19T02:06:44;5.93;;;3.93;;
53022;SDS011;38913;44.338;11.206;2023-11-19T02:09:14;5.15;;;3.63;;
53022;SDS011;38913;44.338;11.206;2023-11-19T02:11:40;4.68;;;3.45;;
53022;SDS011;38913;44.338;11.206;2023-11-19T02:14:06;5.47;;;3.25;;
53022;SDS011;38913;44.338;11.206;2023-11-19T02:16:33;5.63;;;3.55;;
53022;SDS011;38913;44.338;11.206;2023-11-19T02:18:59;6.90;;;4.03;;
53022;SDS011;38913;44.338;11.206;2023-11-19T02:21:26;5.82;;;3.92;;
53022;SDS011;38913;44.338;11.206;2023-11-19T02:23:52;6.32;;;3.90;;
53022;SDS011;38913;44.338;11.206;2023-11-19T02:28:45;5.38;;;3.85;;
53022;SDS011;38913;44.338;11.206;2023-11-19T02:31:11;5.07;;;3.50;;
53022;SDS011;38913;44.338;11.206;2023-11-19T02:33:38;6.55;;;3.97;;
53022;SDS011;38913;44.338;11.206;2023-11-19T02:36:07;4.95;;;3.10;;
53022;SDS011;38913;44.338;11.206;2023-11-19T02:38:54;5.43;;;3.85;;
53022;SDS011;38913;44.338;11.206;2023-11-19T02:41:22;8.07;;;4.07;;
53022;SDS011;38913;44.338;11.206;2023-11-19T02:43:49;5.75;;;3.65;;
53022;SDS011;38913;44.338;11.206;2023-11-19T02:46:16;5.13;;;3.45;;
53022;SDS011;38913;44.338;11.206;2023-11-19T02:48:44;6.30;;;4.05;;
53022;SDS011;38913;44.338;11.206;2023-11-19T02:51:11;6.20;;;3.80;;
53022;SDS011;38913;44.338;11.206;2023-11-19T02:53:40;5.35;;;3.38;;
53022;SDS011;38913;44.338;11.206;2023-11-19T02:56:08;4.72;;;3.50;;
53022;SDS011;38913;44.338;11.206;2023-11-19T02:58:59;7.10;;;3.42;;
53022;SDS011;38913;44.338;11.206;2023-11-19T03:01:24;5.82;;;3.30;;
53022;SDS011;38913;44.338;11.206;2023-11-19T03:04:02;6.13;;;3.65;;
53022;SDS011;38913;44.338;11.206;2023-11-19T03:06:30;5.28;;;3.88;;
53022;SDS011;38913;44.338;11.206;2023-11-19T03:08:55;6.70;;;3.47;;
53022;SDS011;38913;44.338;11.206;2023-11-19T03:11:22;5.75;;;3.70;;
53022;SDS011;38913;44.338;11.206;2023-11-19T03:13:49;5.18;;;3.50;;
53022;SDS011;38913;44.338;11.206;2023-11-19T03:16:16;7.03;;;3.63;;
53022;SDS011;38913;44.338;11.206;2023-11-19T03:18:47;5.55;;;3.53;;
53022;SDS011;38913;44.338;11.206;2023-11-19T03:21:12;4.65;;;3.35;;
53022;SDS011;38913;44.338;11.206;2023-11-19T03:23:42;5.50;;;3.35;;
53022;SDS011;38913;44.338;11.206;2023-11-19T03:26:10;6.20;;;3.90;;
53022;SDS011;38913;44.338;11.206;2023-11-19T03:28:36;5.75;;;3.40;;
53022;SDS011;38913;44.338;11.206;2023-11-19T03:31:06;5.55;;;3.50;;
53022;SDS011;38913;44.338;11.206;2023-11-19T03:33:36;5.00;;;3.47;;
53022;SDS011;38913;44.338;11.206;2023-11-19T03:36:04;4.35;;;3.22;;
53022;SDS011;38913;44.338;11.206;2023-11-19T03:38:31;4.53;;;2.97;;
53022;SDS011;38913;44.338;11.206;2023-11-19T03:40:57;4.32;;;3.15;;
53022;SDS011;38913;44.338;11.206;2023-11-19T03:43:25;4.38;;;3.38;;
53022;SDS011;38913;44.338;11.206;2023-11-19T03:45:52;5.20;;;3.45;;
53022;SDS011;38913;44.338;11.206;2023-11-19T03:48:19;6.97;;;3.92;;
53022;SDS011;38913;44.338;11.206;2023-11-19T03:50:45;4.03;;;2.90;;
53022;SDS011;38913;44.338;11.206;2023-11-19T03:53:12;5.00;;;3.20;;
53022;SDS011;38913;44.338;11.206;2023-11-19T03:55:40;7.55;;;3.50;;
53022;SDS011;38913;44.338;11.206;2023-11-19T03:58:07;5.00;;;3.20;;
53022;SDS011;38913;44.338;11.206;2023-11-19T04:00:34;6.53;;;3.08;;
53022;SDS011;38913;44.338;11.206;2023-11-19T04:03:01;4.25;;;3.15;;
53022;SDS011;38913;44.338;11.206;2023-11-19T04:05:30;6.25;;;3.70;;
53022;SDS011;38913;44.338;11.206;2023-11-19T04:07:56;5.47;;;3.33;;
53022;SDS011;38913;44.338;11.206;2023-11-19T04:10:23;5.45;;;3.20;;
53022;SDS011;38913;44.338;11.206;2023-11-19T04:12:50;4.55;;;3.00;;
53022;SDS011;38913;44.338;11.206;2023-11-19T04:15:18;5.88;;;2.90;;
53022;SDS011;38913;44.338;11.206;2023-11-19T04:17:45;4.25;;;2.90;;
53022;SDS011;38913;44.338;11.206;2023-11-19T04:20:11;5.63;;;3.20;;
53022;SDS011;38913;44.338;11.206;2023-11-19T04:22:39;4.38;;;3.10;;
53022;SDS011;38913;44.338;11.206;2023-11-19T04:25:06;4.43;;;3.13;;
53022;SDS011;38913;44.338;11.206;2023-11-19T04:27:33;5.90;;;3.40;;
53022;SDS011;38913;44.338;11.206;2023-11-19T04:30:19;5.15;;;3.35;;
53022;SDS011;38913;44.338;11.206;2023-11-19T04:32:46;6.45;;;3.28;;
53022;SDS011;38913;44.338;11.206;2023-11-19T04:35:12;5.55;;;3.08;;
53022;SDS011;38913;44.338;11.206;2023-11-19T04:37:41;5.63;;;3.22;;
53022;SDS011;38913;44.338;11.206;2023-11-19T04:40:07;6.05;;;3.30;;
53022;SDS011;38913;44.338;11.206;2023-11-19T04:42:33;7.38;;;3.40;;
53022;SDS011;38913;44.338;11.206;2023-11-19T04:44:59;6.45;;;3.35;;
53022;SDS011;38913;44.338;11.206;2023-11-19T04:47:26;4.50;;;3.10;;
53022;SDS011;38913;44.338;11.206;2023-11-19T04:49:52;6.20;;;3.17;;
53022;SDS011;38913;44.338;11.206;2023-11-19T04:52:18;6.40;;;3.50;;
53022;SDS011;38913;44.338;11.206;2023-11-19T04:54:45;4.30;;;2.92;;
53022;SDS011;38913;44.338;11.206;2023-11-19T04:57:11;4.68;;;2.85;;
53022;SDS011;38913;44.338;11.206;2023-11-19T04:59:38;4.45;;;3.03;;
53022;SDS011;38913;44.338;11.206;2023-11-19T05:02:04;5.72;;;3.00;;
53022;SDS011;38913;44.338;11.206;2023-11-19T05:04:31;5.53;;;3.03;;
53022;SDS011;38913;44.338;11.206;2023-11-19T05:06:57;5.25;;;3.22;;
53022;SDS011;38913;44.338;11.206;2023-11-19T05:09:23;4.75;;;2.85;;
53022;SDS011;38913;44.338;11.206;2023-11-19T05:11:49;4.20;;;3.03;;
53022;SDS011;38913;44.338;11.206;2023-11-19T05:14:14;4.72;;;3.08;;
53022;SDS011;38913;44.338;11.206;2023-11-19T05:16:42;5.43;;;3.03;;
53022;SDS011;38913;44.338;11.206;2023-11-19T05:19:08;5.40;;;3.20;;
53022;SDS011;38913;44.338;11.206;2023-11-19T05:21:34;5.47;;;2.63;;
53022;SDS011;38913;44.338;11.206;2023-11-19T05:24:02;4.32;;;3.00;;
53022;SDS011;38913;44.338;11.206;2023-11-19T05:26:34;4.28;;;2.85;;
53022;SDS011;38913;44.338;11.206;2023-11-19T05:29:02;4.88;;;2.70;;
53022;SDS011;38913;44.338;11.206;2023-11-19T05:31:48;4.18;;;2.75;;
53022;SDS011;38913;44.338;11.206;2023-11-19T05:34:14;5.25;;;3.15;;
53022;SDS011;38913;44.338;11.206;2023-11-19T05:36:41;5.35;;;2.70;;
53022;SDS011;38913;44.338;11.206;2023-11-19T05:39:09;4.30;;;3.05;;
53022;SDS011;38913;44.338;11.206;2023-11-19T05:44:16;3.70;;;2.55;;
53022;SDS011;38913;44.338;11.206;2023-11-19T05:46:43;3.90;;;2.42;;
53022;SDS011;38913;44.338;11.206;2023-11-19T05:49:09;5.72;;;2.55;;
53022;SDS011;38913;44.338;11.206;2023-11-19T05:51:42;5.50;;;2.67;;
53022;SDS011;38913;44.338;11.206;2023-11-19T05:54:09;4.28;;;2.90;;
53022;SDS011;38913;44.338;11.206;2023-11-19T05:56:36;5.15;;;2.70;;
53022;SDS011;38913;44.338;11.206;2023-11-19T05:59:02;5.45;;;3.03;;
53022;SDS011;38913;44.338;11.206;2023-11-19T06:01:35;4.60;;;2.60;;
53022;SDS011;38913;44.338;11.206;2023-11-19T06:04:08;5.57;;;2.75;;
53022;SDS011;38913;44.338;11.206;2023-11-19T06:06:34;6.10;;;2.40;;
53022;SDS011;38913;44.338;11.206;2023-11-19T06:08:59;4.05;;;2.63;;
53022;SDS011;38913;44.338;11.206;2023-11-19T06:11:30;5.07;;;2.80;;
53022;SDS011;38913;44.338;11.206;2023-11-19T06:13:57;3.45;;;2.45;;
53022;SDS011;38913;44.338;11.206;2023-11-19T06:16:22;4.80;;;2.33;;
53022;SDS011;38913;44.338;11.206;2023-11-19T06:18:50;4.50;;;2.90;;
53022;SDS011;38913;44.338;11.206;2023-11-19T06:21:15;3.95;;;2.60;;
53022;SDS011;38913;44.338;11.206;2023-11-19T06:23:41;5.20;;;2.53;;
53022;SDS011;38913;44.338;11.206;2023-11-19T06:26:09;3.88;;;2.40;;
53022;SDS011;38913;44.338;11.206;2023-11-19T06:28:35;2.67;;;2.10;;
53022;SDS011;38913;44.338;11.206;2023-11-19T06:31:03;4.22;;;2.30;;
53022;SDS011;38913;44.338;11.206;2023-11-19T06:33:41;3.83;;;2.00;;
53022;SDS011;38913;44.338;11.206;2023-11-19T06:36:09;3.42;;;2.13;;
53022;SDS011;38913;44.338;11.206;2023-11-19T06:38:35;3.80;;;2.30;;
53022;SDS011;38913;44.338;11.206;2023-11-19T06:41:05;4.53;;;2.08;;
53022;SDS011;38913;44.338;11.206;2023-11-19T06:43:36;3.70;;;2.08;;
53022;SDS011;38913;44.338;11.206;2023-11-19T06:46:03;3.97;;;2.53;;
53022;SDS011;38913;44.338;11.206;2023-11-19T06:48:49;3.20;;;2.20;;
53022;SDS011;38913;44.338;11.206;2023-11-19T06:51:16;2.95;;;2.13;;
53022;SDS011;38913;44.338;11.206;2023-11-19T06:53:42;3.70;;;2.22;;
53022;SDS011;38913;44.338;11.206;2023-11-19T06:56:22;4.18;;;2.30;;
53022;SDS011;38913;44.338;11.206;2023-11-19T06:58:49;5.82;;;3.10;;
53022;SDS011;38913;44.338;11.206;2023-11-19T07:01:15;3.85;;;2.30;;
53022;SDS011;38913;44.338;11.206;2023-11-19T07:03:42;5.43;;;2.45;;
53022;SDS011;38913;44.338;11.206;2023-11-19T07:06:08;4.43;;;2.50;;
53022;SDS011;38913;44.338;11.206;2023-11-19T07:08:46;4.97;;;2.28;;
53022;SDS011;38913;44.338;11.206;2023-11-19T07:11:13;3.85;;;2.60;;
53022;SDS011;38913;44.338;11.206;2023-11-19T07:13:41;4.88;;;2.50;;
53022;SDS011;38913;44.338;11.206;2023-11-19T07:16:08;3.08;;;2.20;;
53022;SDS011;38913;44.338;11.206;2023-11-19T07:18:39;4.93;;;2.50;;
53022;SDS011;38913;44.338;11.206;2023-11-19T07:21:04;3.70;;;2.70;;
53022;SDS011;38913;44.338;11.206;2023-11-19T07:23:31;4.65;;;2.60;;
53022;SDS011;38913;44.338;11.206;2023-11-19T07:26:00;4.63;;;2.90;;
53022;SDS011;38913;44.338;11.206;2023-11-19T07:28:28;3.88;;;2.47;;
53022;SDS011;38913;44.338;11.206;2023-11-19T07:31:05;4.80;;;2.70;;
53022;SDS011;38913;44.338;11.206;2023-11-19T07:33:33;4.57;;;2.58;;
53022;SDS011;38913;44.338;11.206;2023-11-19T07:36:02;3.55;;;2.30;;
53022;SDS011;38913;44.338;11.206;2023-11-19T07:38:29;5.55;;;2.65;;
53022;SDS011;38913;44.338;11.206;2023-11-19T07:40:56;4.32;;;2.45;;
53022;SDS011;38913;44.338;11.206;2023-11-19T07:43:21;3.75;;;2.10;;
53022;SDS011;38913;44.338;11.206;2023-11-19T07:45:46;3.53;;;2.53;;
53022;SDS011;38913;44.338;11.206;2023-11-19T07:48:12;4.07;;;2.28;;
53022;SDS011;38913;44.338;11.206;2023-11-19T07:50:40;3.40;;;2.45;;
53022;SDS011;38913;44.338;11.206;2023-11-19T07:53:08;4.35;;;2.28;;
53022;SDS011;38913;44.338;11.206;2023-11-19T07:55:35;3.50;;;2.50;;
53022;SDS011;38913;44.338;11.206;2023-11-19T07:58:03;3.40;;;2.42;;
53022;SDS011;38913;44.338;11.206;2023-11-19T08:00:28;3.85;;;2.17;;
53022;SDS011;38913;44.338;11.206;2023-11-19T08:02:55;4.10;;;2.38;;
53022;SDS011;38913;44.338;11.206;2023-11-19T08:05:21;3.92;;;2.50;;
53022;SDS011;38913;44.338;11.206;2023-11-19T08:07:51;3.33;;;2.42;;
53022;SDS011;38913;44.338;11.206;2023-11-19T08:10:19;4.13;;;2.47;;
53022;SDS011;38913;44.338;11.206;2023-11-19T08:12:46;3.40;;;2.40;;
53022;SDS011;38913;44.338;11.206;2023-11-19T08:15:13;3.63;;;2.17;;
53022;SDS011;38913;44.338;11.206;2023-11-19T08:17:40;3.10;;;2.03;;
53022;SDS011;38913;44.338;11.206;2023-11-19T08:20:11;3.78;;;2.53;;
53022;SDS011;38913;44.338;11.206;2023-11-19T08:22:38;3.45;;;2.47;;
53022;SDS011;38913;44.338;11.206;2023-11-19T08:25:05;2.38;;;1.73;;
53022;SDS011;38913;44.338;11.206;2023-11-19T08:27:33;3.00;;;2.47;;
53022;SDS011;38913;44.338;11.206;2023-11-19T08:29:59;3.15;;;2.00;;
53022;SDS011;38913;44.338;11.206;2023-11-19T08:32:26;2.75;;;2.03;;
53022;SDS011;38913;44.338;11.206;2023-11-19T08:34:53;3.20;;;2.13;;
53022;SDS011;38913;44.338;11.206;2023-11-19T08:37:20;2.75;;;1.90;;
53022;SDS011;38913;44.338;11.206;2023-11-19T08:39:49;3.03;;;2.33;;
53022;SDS011;38913;44.338;11.206;2023-11-19T08:42:17;3.53;;;2.20;;
53022;SDS011;38913;44.338;11.206;2023-11-19T08:44:49;3.15;;;1.90;;
53022;SDS011;38913;44.338;11.206;2023-11-19T08:47:25;3.97;;;2.10;;
53022;SDS011;38913;44.338;11.206;2023-11-19T08:49:53;3.85;;;2.30;;
53022;SDS011;38913;44.338;11.206;2023-11-19T08:52:19;3.22;;;2.20;;
53022;SDS011;38913;44.338;11.206;2023-11-19T08:54:45;4.97;;;2.30;;
53022;SDS011;38913;44.338;11.206;2023-11-19T08:57:11;3.13;;;2.13;;
53022;SDS011;38913;44.338;11.206;2023-11-19T08:59:38;3.80;;;2.45;;
53022;SDS011;38913;44.338;11.206;2023-11-19T09:02:05;2.22;;;1.88;;
53022;SDS011;38913;44.338;11.206;2023-11-19T09:04:33;2.70;;;2.05;;
53022;SDS011;38913;44.338;11.206;2023-11-19T09:07:00;4.13;;;2.30;;
53022;SDS011;38913;44.338;11.206;2023-11-19T09:09:27;3.45;;;2.17;;
53022;SDS011;38913;44.338;11.206;2023-11-19T09:11:53;4.65;;;1.92;;
53022;SDS011;38913;44.338;11.206;2023-11-19T09:14:22;2.72;;;1.85;;
53022;SDS011;38913;44.338;11.206;2023-11-19T09:16:54;2.50;;;1.90;;
53022;SDS011;38913;44.338;11.206;2023-11-19T09:19:20;6.47;;;6.07;;
53022;SDS011;38913;44.338;11.206;2023-11-19T09:21:46;18.30;;;17.50;;
53022;SDS011;38913;44.338;11.206;2023-11-19T09:24:15;4.85;;;4.45;;
53022;SDS011;38913;44.338;11.206;2023-11-19T09:26:41;4.43;;;4.13;;
53022;SDS011;38913;44.338;11.206;2023-11-19T09:29:08;7.68;;;7.28;;
53022;SDS011;38913;44.338;11.206;2023-11-19T09:31:34;4.90;;;4.60;;
53022;SDS011;38913;44.338;11.206;2023-11-19T09:34:01;3.83;;;3.45;;
53022;SDS011;38913;44.338;11.206;2023-11-19T09:36:28;3.17;;;2.60;;
53022;SDS011;38913;44.338;11.206;2023-11-19T09:38:54;2.88;;;2.22;;
53022;SDS011;38913;44.338;11.206;2023-11-19T09:41:22;2.28;;;2.08;;
53022;SDS011;38913;44.338;11.206;2023-11-19T09:43:54;4.05;;;2.60;;
53022;SDS011;38913;44.338;11.206;2023-11-19T09:46:22;3.20;;;2.08;;
53022;SDS011;38913;44.338;11.206;2023-11-19T09:48:52;3.22;;;2.20;;
53022;SDS011;38913;44.338;11.206;2023-11-19T09:51:22;5.28;;;2.60;;
53022;SDS011;38913;44.338;11.206;2023-11-19T09:53:47;3.30;;;2.65;;
53022;SDS011;38913;44.338;11.206;2023-11-19T09:56:15;2.83;;;2.53;;
53022;SDS011;38913;44.338;11.206;2023-11-19T09:58:43;3.60;;;2.55;;
53022;SDS011;38913;44.338;11.206;2023-11-19T10:01:11;3.22;;;2.90;;
53022;SDS011;38913;44.338;11.206;2023-11-19T10:03:39;3.17;;;2.65;;
53022;SDS011;38913;44.338;11.206;2023-11-19T10:06:08;5.20;;;4.13;;
53022;SDS011;38913;44.338;11.206;2023-11-19T10:08:38;3.65;;;3.15;;
53022;SDS011;38913;44.338;11.206;2023-11-19T10:11:07;3.35;;;2.60;;
53022;SDS011;38913;44.338;11.206;2023-11-19T10:13:37;2.53;;;2.25;;
53022;SDS011;38913;44.338;11.206;2023-11-19T10:16:07;3.20;;;2.58;;
53022;SDS011;38913;44.338;11.206;2023-11-19T10:18:33;3.28;;;2.53;;
53022;SDS011;38913;44.338;11.206;2023-11-19T10:21:03;4.07;;;2.45;;
53022;SDS011;38913;44.338;11.206;2023-11-19T10:23:51;3.00;;;2.70;;
53022;SDS011;38913;44.338;11.206;2023-11-19T10:26:27;3.78;;;3.20;;
53022;SDS011;38913;44.338;11.206;2023-11-19T10:28:53;8.48;;;7.75;;
53022;SDS011;38913;44.338;11.206;2023-11-19T10:31:21;4.05;;;3.30;;
53022;SDS011;38913;44.338;11.206;2023-11-19T10:33:52;4.15;;;2.90;;
53022;SDS011;38913;44.338;11.206;2023-11-19T10:36:20;2.95;;;2.65;;
53022;SDS011;38913;44.338;11.206;2023-11-19T10:38:56;4.80;;;3.38;;
53022;SDS011;38913;44.338;11.206;2023-11-19T10:41:32;2.72;;;2.50;;
53022;SDS011;38913;44.338;11.206;2023-11-19T10:43:59;4.18;;;2.90;;
53022;SDS011;38913;44.338;11.206;2023-11-19T10:46:38;3.20;;;2.70;;
53022;SDS011;38913;44.338;11.206;2023-11-19T10:49:23;4.50;;;2.88;;
53022;SDS011;38913;44.338;11.206;2023-11-19T10:51:50;4.93;;;2.65;;
53022;SDS011;38913;44.338;11.206;2023-11-19T10:54:18;2.95;;;2.65;;
53022;SDS011;38913;44.338;11.206;2023-11-19T10:56:46;2.85;;;2.05;;
53022;SDS011;38913;44.338;11.206;2023-11-19T10:59:13;4.15;;;2.60;;
53022;SDS011;38913;44.338;11.206;2023-11-19T11:01:39;3.22;;;1.90;;
53022;SDS011;38913;44.338;11.206;2023-11-19T11:04:19;2.80;;;2.10;;
53022;SDS011;38913;44.338;11.206;2023-11-19T11:06:56;3.08;;;1.88;;
53022;SDS011;38913;44.338;11.206;2023-11-19T11:09:25;3.13;;;2.20;;
53022;SDS011;38913;44.338;11.206;2023-11-19T11:12:14;2.95;;;1.90;;
53022;SDS011;38913;44.338;11.206;2023-11-19T11:14:45;4.28;;;2.10;;
53022;SDS011;38913;44.338;11.206;2023-11-19T11:17:13;2.67;;;1.90;;
53022;SDS011;38913;44.338;11.206;2023-11-19T11:19:43;2.83;;;2.00;;
53022;SDS011;38913;44.338;11.206;2023-11-19T11:22:19;2.78;;;1.98;;
53022;SDS011;38913;44.338;11.206;2023-11-19T11:27:49;3.22;;;1.65;;
53022;SDS011;38913;44.338;11.206;2023-11-19T11:33:02;3.00;;;2.00;;
53022;SDS011;38913;44.338;11.206;2023-11-19T11:35:35;3.45;;;1.88;;
53022;SDS011;38913;44.338;11.206;2023-11-19T11:38:08;2.67;;;1.95;;
53022;SDS011;38913;44.338;11.206;2023-11-19T11:40:35;2.72;;;2.00;;
53022;SDS011;38913;44.338;11.206;2023-11-19T11:43:03;2.17;;;1.50;;
53022;SDS011;38913;44.338;11.206;2023-11-19T11:45:35;2.67;;;1.52;;
53022;SDS011;38913;44.338;11.206;2023-11-19T11:48:14;3.40;;;1.50;;
53022;SDS011;38913;44.338;11.206;2023-11-19T11:50:52;4.25;;;1.80;;
53022;SDS011;38913;44.338;11.206;2023-11-19T11:53:20;3.13;;;1.80;;
53022;SDS011;38913;44.338;11.206;2023-11-19T11:55:52;5.07;;;1.50;;
53022;SDS011;38913;44.338;11.206;2023-11-19T11:58:29;4.05;;;1.58;;
53022;SDS011;38913;44.338;11.206;2023-11-19T12:00:57;3.22;;;1.70;;
53022;SDS011;38913;44.338;11.206;2023-11-19T12:03:23;3.55;;;1.88;;
53022;SDS011;38913;44.338;11.206;2023-11-19T12:05:51;3.05;;;1.80;;
53022;SDS011;38913;44.338;11.206;2023-11-19T12:08:20;3.53;;;1.85;;
53022;SDS011;38913;44.338;11.206;2023-11-19T12:10:52;2.33;;;1.60;;
53022;SDS011;38913;44.338;11.206;2023-11-19T12:13:18;3.75;;;1.80;;
53022;SDS011;38913;44.338;11.206;2023-11-19T12:18:31;4.10;;;2.35;;
53022;SDS011;38913;44.338;11.206;2023-11-19T12:21:00;2.63;;;2.00;;
53022;SDS011;38913;44.338;11.206;2023-11-19T12:23:46;2.30;;;1.60;;
53022;SDS011;38913;44.338;11.206;2023-11-19T12:26:55;2.70;;;1.77;;
53022;SDS011;38913;44.338;11.206;2023-11-19T12:29:03;3.80;;;1.58;;
53022;SDS011;38913;44.338;11.206;2023-11-19T12:31:30;3.00;;;1.75;;
53022;SDS011;38913;44.338;11.206;2023-11-19T12:33:57;3.25;;;1.65;;
53022;SDS011;38913;44.338;11.206;2023-11-19T12:36:22;6.22;;;2.50;;
53022;SDS011;38913;44.338;11.206;2023-11-19T12:38:50;2.22;;;1.50;;
53022;SDS011;38913;44.338;11.206;2023-11-19T12:41:19;2.25;;;1.38;;
53022;SDS011;38913;44.338;11.206;2023-11-19T12:43:48;3.85;;;1.42;;
53022;SDS011;38913;44.338;11.206;2023-11-19T12:46:20;3.83;;;1.60;;
53022;SDS011;38913;44.338;11.206;2023-11-19T12:48:57;2.65;;;1.65;;
53022;SDS011;38913;44.338;11.206;2023-11-19T12:51:30;2.67;;;1.40;;
53022;SDS011;38913;44.338;11.206;2023-11-19T12:53:56;2.13;;;1.50;;
53022;SDS011;38913;44.338;11.206;2023-11-19T12:56:24;2.67;;;1.38;;
53022;SDS011;38913;44.338;11.206;2023-11-19T12:58:50;2.13;;;1.55;;
53022;SDS011;38913;44.338;11.206;2023-11-19T13:01:20;3.15;;;1.70;;
53022;SDS011;38913;44.338;11.206;2023-11-19T13:03:46;3.50;;;1.50;;
53022;SDS011;38913;44.338;11.206;2023-11-19T13:06:14;2.17;;;1.58;;
53022;SDS011;38913;44.338;11.206;2023-11-19T13:08:48;2.53;;;1.38;;
53022;SDS011;38913;44.338;11.206;2023-11-19T13:11:19;2.50;;;1.50;;
53022;SDS011;38913;44.338;11.206;2023-11-19T13:13:58;2.00;;;1.40;;
53022;SDS011;38913;44.338;11.206;2023-11-19T13:16:24;2.30;;;1.60;;
53022;SDS011;38913;44.338;11.206;2023-11-19T13:18:52;3.25;;;1.40;;
53022;SDS011;38913;44.338;11.206;2023-11-19T13:21:20;2.70;;;1.20;;
53022;SDS011;38913;44.338;11.206;2023-11-19T13:23:47;2.47;;;1.60;;
53022;SDS011;38913;44.338;11.206;2023-11-19T13:26:12;3.50;;;1.73;;
53022;SDS011;38913;44.338;11.206;2023-11-19T13:28:40;2.40;;;1.60;;
53022;SDS011;38913;44.338;11.206;2023-11-19T13:31:07;3.22;;;1.85;;
53022;SDS011;38913;44.338;11.206;2023-11-19T13:33:34;2.83;;;1.65;;
53022;SDS011;38913;44.338;11.206;2023-11-19T13:36:01;2.83;;;1.80;;
53022;SDS011;38913;44.338;11.206;2023-11-19T13:38:32;3.00;;;1.98;;
53022;SDS011;38913;44.338;11.206;2023-11-19T13:41:12;3.80;;;2.08;;
53022;SDS011;38913;44.338;11.206;2023-11-19T13:43:39;3.28;;;1.90;;
53022;SDS011;38913;44.338;11.206;2023-11-19T13:46:05;3.28;;;2.50;;
53022;SDS011;38913;44.338;11.206;2023-11-19T13:48:31;3.17;;;2.03;;
53022;SDS011;38913;44.338;11.206;2023-11-19T13:50:58;3.75;;;2.33;;
53022;SDS011;38913;44.338;11.206;2023-11-19T13:53:46;3.38;;;2.58;;
53022;SDS011;38913;44.338;11.206;2023-11-19T13:56:11;4.90;;;2.70;;
53022;SDS011;38913;44.338;11.206;2023-11-19T13:58:37;4.95;;;3.38;;
53022;SDS011;38913;44.338;11.206;2023-11-19T14:01:03;8.80;;;6.00;;
53022;SDS011;38913;44.338;11.206;2023-11-19T14:03:29;5.13;;;3.40;;
53022;SDS011;38913;44.338;11.206;2023-11-19T14:05:57;5.47;;;3.22;;
53022;SDS011;38913;44.338;11.206;2023-11-19T14:08:25;5.55;;;4.35;;
53022;SDS011;38913;44.338;11.206;2023-11-19T14:10:52;5.40;;;3.70;;
53022;SDS011;38913;44.338;11.206;2023-11-19T14:13:21;5.30;;;3.85;;
53022;SDS011;38913;44.338;11.206;2023-11-19T14:15:49;7.45;;;4.30;;
53022;SDS011;38913;44.338;11.206;2023-11-19T14:18:18;6.75;;;4.63;;
53022;SDS011;38913;44.338;11.206;2023-11-19T14:20:45;5.97;;;4.50;;
53022;SDS011;38913;44.338;11.206;2023-11-19T14:23:12;7.50;;;4.75;;
53022;SDS011;38913;44.338;11.206;2023-11-19T14:25:39;7.13;;;4.65;;
53022;SDS011;38913;44.338;11.206;2023-11-19T14:28:05;8.05;;;4.85;;
53022;SDS011;38913;44.338;11.206;2023-11-19T14:30:32;9.90;;;4.90;;
53022;SDS011;38913;44.338;11.206;2023-11-19T14:32:58;7.40;;;4.22;;
53022;SDS011;38913;44.338;11.206;2023-11-19T14:35:24;7.03;;;4.50;;
53022;SDS011;38913;44.338;11.206;2023-11-19T14:37:52;7.90;;;4.05;;
53022;SDS011;38913;44.338;11.206;2023-11-19T14:40:29;7.57;;;4.35;;
53022;SDS011;38913;44.338;11.206;2023-11-19T14:42:55;6.78;;;3.90;;
53022;SDS011;38913;44.338;11.206;2023-11-19T14:45:22;4.93;;;3.67;;
53022;SDS011;38913;44.338;11.206;2023-11-19T14:47:48;6.47;;;4.68;;
53022;SDS011;38913;44.338;11.206;2023-11-19T14:50:15;5.78;;;3.35;;
53022;SDS011;38913;44.338;11.206;2023-11-19T14:52:43;5.95;;;3.80;;
53022;SDS011;38913;44.338;11.206;2023-11-19T14:55:08;7.15;;;4.10;;